Time;durP1;ratioP1;P1;durP2;ratioP2;P2;SDS_P1;SDS_P2;PMS_P1;PMS_P2;Temp;Humidity;BMP_temperature;BMP_pressure;BME280_temperature;BME280_humidity;BME280_pressure;Samples;Min_cycle;Max_cycle;Signal;HPM_P1;HPM_P2
2021/12/07 00:09:11;;;;;;;0.30;0.30;;;2.40;95.90;0.90;100321.00;;;;30985533;28;20042;-70
2021/12/07 00:24:37;;;;;;;0.20;0.20;;;2.40;95.20;0.90;100346.00;;;;30983004;28;20077;-70
2021/12/07 00:39:41;;;;;;;0.22;0.22;;;2.40;95.20;0.90;100371.00;;;;30992558;28;20074;-70
2021/12/07 00:54:42;;;;;;;0.28;0.28;;;1.00;95.60;1.00;100364.00;;;;30965549;28;20096;-71
2021/12/07 02:12:13;;;;;;;0.20;0.20;;;2.70;95.90;1.30;100476.00;;;;31020103;28;20053;-71
2021/12/07 02:27:20;;;;;;;0.30;0.30;;;3.30;96.00;1.50;100477.00;;;;30992847;28;20069;-71
2021/12/07 02:42:24;;;;;;;0.30;0.30;;;3.20;96.90;1.90;100492.00;;;;30998333;28;20050;-70
2021/12/07 02:57:26;;;;;;;0.30;0.30;;;3.20;97.20;1.80;100524.00;;;;30999438;28;20169;-70
2021/12/07 03:27:53;;;;;;;1.65;1.65;;;3.10;97.30;1.70;100564.00;;;;31002203;28;20053;-70
2021/12/07 03:42:56;;;;;;;0.30;0.30;;;2.40;96.70;1.70;100575.00;;;;30983416;28;20105;-70
2021/12/07 03:57:58;;;;;;;0.40;0.40;;;3.10;96.70;1.50;100594.00;;;;30987234;28;20061;-70
2021/12/07 04:14:04;;;;;;;0.30;0.30;;;2.90;96.50;1.50;100627.00;;;;30989085;28;20039;-70
2021/12/07 04:29:09;;;;;;;0.30;0.30;;;2.90;96.80;1.40;100642.00;;;;30970367;28;20153;-70
2021/12/07 04:44:11;;;;;;;0.30;0.30;;;2.50;97.30;1.30;100650.00;;;;30970709;28;20041;-70
2021/12/07 04:59:15;;;;;;;0.30;0.30;;;2.80;97.20;1.10;100666.00;;;;30986989;28;20057;-70
2021/12/07 05:14:29;;;;;;;0.30;0.30;;;2.50;96.50;1.00;100687.00;;;;31000918;28;20045;-72
2021/12/07 05:44:54;;;;;;;0.20;0.20;;;2.50;97.00;1.10;100715.00;;;;31011930;28;20050;-71
2021/12/07 05:59:55;;;;;;;0.30;0.30;;;2.60;96.60;1.00;100741.00;;;;31014207;28;20125;-72
2021/12/07 06:15:03;;;;;;;0.32;0.32;;;2.50;96.60;0.90;100775.00;;;;30989343;28;20157;-72
2021/12/07 06:30:07;;;;;;;0.28;0.28;;;2.80;96.50;1.00;100789.00;;;;30985163;28;20565;-72
2021/12/07 06:45:11;;;;;;;0.30;0.30;;;2.60;97.00;1.10;100772.00;;;;31002481;28;20049;-72
2021/12/07 07:00:14;;;;;;;0.22;0.22;;;2.50;97.40;1.00;100777.00;;;;31017212;28;20042;-73
2021/12/07 07:15:22;;;;;;;0.30;0.30;;;2.50;97.00;1.00;100804.00;;;;30974759;28;20100;-73
2021/12/07 07:30:23;;;;;;;0.40;0.40;;;4.40;97.60;1.20;100804.00;;;;31000192;28;20101;-73
2021/12/07 07:45:25;;;;;;;0.30;0.30;;;2.70;96.80;1.30;100809.00;;;;30999778;28;20065;-73
2021/12/07 08:00:26;;;;;;;0.20;0.20;;;2.70;96.90;1.40;100819.00;;;;30996496;28;20069;-73
2021/12/07 08:15:41;;;;;;;0.35;0.35;;;2.80;97.40;1.50;100812.00;;;;30987677;28;20114;-73
2021/12/07 08:30:49;;;;;;;0.32;0.32;;;3.00;97.00;1.70;100811.00;;;;30982973;28;21034;-74
2021/12/07 08:45:54;;;;;;;0.30;0.30;;;2.60;97.40;1.90;100831.00;;;;30995249;28;20658;-73
2021/12/07 09:00:55;;;;;;;0.40;0.40;;;3.30;96.70;2.00;100817.00;;;;30985502;28;20705;-73
2021/12/07 09:15:57;;;;;;;1.23;1.23;;;3.50;96.20;2.20;100832.00;;;;30992785;28;20145;-73
2021/12/07 09:31:00;;;;;;;0.30;0.30;;;3.50;96.30;2.30;100835.00;;;;30991980;28;20506;-73
2021/12/07 09:46:06;;;;;;;0.20;0.20;;;3.70;96.60;2.60;100847.00;;;;31016149;28;20057;-73
2021/12/07 10:01:09;;;;;;;0.30;0.30;;;3.90;96.00;2.70;100837.00;;;;30987477;28;20034;-72
2021/12/07 10:16:15;;;;;;;0.20;0.20;;;4.20;96.00;3.00;100829.00;;;;31014771;28;20073;-73
2021/12/07 10:31:23;;;;;;;0.30;0.30;;;4.40;95.90;3.30;100822.00;;;;30985181;28;20049;-73
2021/12/07 10:46:39;;;;;;;0.30;0.30;;;5.20;95.70;3.60;100820.00;;;;31015179;28;20612;-72
2021/12/07 11:01:44;;;;;;;0.20;0.20;;;4.90;95.40;4.00;100786.00;;;;31003798;28;20046;-72
2021/12/07 11:16:47;;;;;;;0.20;0.20;;;5.40;94.70;4.40;100756.00;;;;30977831;28;20123;-71
2021/12/07 11:31:49;;;;;;;0.30;0.30;;;5.60;94.60;4.80;100727.00;;;;30996485;28;20042;-71
2021/12/07 11:46:52;;;;;;;0.30;0.30;;;6.00;94.10;5.10;100724.00;;;;30992557;28;20046;-71
2021/12/07 12:01:54;;;;;;;0.30;0.30;;;6.40;93.20;5.40;100711.00;;;;30996381;28;20090;-72
2021/12/07 12:17:23;;;;;;;0.20;0.20;;;6.60;93.00;5.70;100690.00;;;;31002895;28;20911;-73
2021/12/07 12:32:38;;;;;;;0.20;0.20;;;6.80;92.80;5.70;100660.00;;;;31007686;28;20051;-73
2021/12/07 12:47:40;;;;;;;0.40;0.40;;;6.80;91.40;5.60;100658.00;;;;30988520;28;20052;-73
2021/12/07 13:02:49;;;;;;;0.20;0.20;;;6.70;91.00;5.60;100629.00;;;;30990691;28;20158;-73
2021/12/07 13:17:50;;;;;;;0.25;0.25;;;6.60;90.80;5.40;100586.00;;;;30996599;28;20054;-73
2021/12/07 13:33:35;;;;;;;0.20;0.20;;;6.50;90.90;5.20;100535.00;;;;30985765;28;20043;-73
2021/12/07 13:48:38;;;;;;;0.25;0.25;;;6.30;91.40;5.00;100510.00;;;;31016972;28;20046;-73
2021/12/07 14:03:44;;;;;;;0.20;0.20;;;6.10;91.40;4.90;100471.00;;;;30988960;28;20053;-73
2021/12/07 14:18:47;;;;;;;;;;;6.00;91.50;4.80;100457.00;;;;31010852;28;20057;-73
2021/12/07 14:43:17;;;;;;;0.32;0.32;;;5.80;91.60;4.50;100423.00;;;;31249966;28;20440;-75
2021/12/07 14:58:31;;;;;;;0.20;0.20;;;5.70;91.80;4.40;100403.00;;;;31144612;28;20160;-74
2021/12/07 15:13:33;;;;;;;0.30;0.30;;;5.80;92.10;4.20;100356.00;;;;31160505;28;20045;-74
2021/12/07 15:28:34;;;;;;;0.20;0.20;;;5.30;92.20;4.00;100337.00;;;;31204322;28;20176;-73
2021/12/07 15:43:42;;;;;;;0.30;0.30;;;5.30;92.70;3.90;100313.00;;;;31242557;28;20421;-73
2021/12/07 15:58:51;;;;;;;0.28;0.28;;;5.20;92.00;3.90;100288.00;;;;31152449;28;20049;-74
2021/12/07 16:13:58;;;;;;;0.20;0.20;;;5.00;91.50;3.90;100260.00;;;;31158748;28;20049;-74
2021/12/07 16:29:00;;;;;;;0.30;0.30;;;5.10;91.10;3.80;100217.00;;;;31150875;28;20056;-75
2021/12/07 16:44:04;;;;;;;0.20;0.20;;;5.10;90.80;3.80;100169.00;;;;31142325;28;20041;-75
2021/12/07 16:59:05;;;;;;;0.30;0.30;;;5.10;90.40;3.80;100130.00;;;;31149006;28;20598;-76
2021/12/07 17:14:07;;;;;;;1.38;1.38;;;5.00;90.30;3.80;100067.00;;;;31150444;28;20041;-75
2021/12/07 17:29:08;;;;;;;0.85;0.85;;;5.00;89.90;3.70;100007.00;;;;31141757;28;20095;-76
2021/12/07 17:44:11;;;;;;;0.30;0.30;;;4.90;90.60;3.60;99977.00;;;;31162625;28;20456;-76
2021/12/07 17:59:13;;;;;;;0.20;0.20;;;4.90;90.10;3.50;99909.00;;;;31148961;28;20064;-76
2021/12/07 18:14:15;;;;;;;0.20;0.20;;;4.80;89.90;3.50;99859.00;;;;31143924;28;20054;-76
2021/12/07 18:29:16;;;;;;;0.30;0.30;;;4.80;90.10;3.50;99829.00;;;;31112750;28;20798;-76
2021/12/07 18:44:26;;;;;;;0.20;0.20;;;4.80;90.10;3.50;99795.00;;;;31135240;28;20061;-76
2021/12/07 18:59:29;;;;;;;0.30;0.30;;;4.80;90.30;3.60;99741.00;;;;31137613;28;20311;-76
2021/12/07 19:14:32;;;;;;;0.30;0.30;;;4.80;90.20;3.60;99691.00;;;;31127225;28;20488;-76
2021/12/07 19:29:33;;;;;;;0.38;0.38;;;4.90;90.20;3.70;99653.00;;;;31114195;28;20045;-76
2021/12/07 19:44:35;;;;;;;0.30;0.30;;;5.00;90.20;3.80;99602.00;;;;31130095;28;20103;-76
2021/12/07 19:59:42;;;;;;;0.30;0.30;;;5.10;90.00;4.00;99546.00;;;;31125375;28;20614;-76
2021/12/07 20:14:44;;;;;;;0.47;0.47;;;5.20;89.60;4.10;99524.00;;;;31149011;28;20056;-76
2021/12/07 20:29:46;;;;;;;0.20;0.20;;;5.30;89.60;4.20;99516.00;;;;31143641;28;21270;-76
2021/12/07 20:44:47;;;;;;;0.22;0.22;;;5.40;89.70;4.30;99518.00;;;;31117822;28;20580;-76
2021/12/07 20:59:48;;;;;;;0.20;0.20;;;5.40;89.20;4.30;99543.00;;;;31148256;28;20053;-78
2021/12/07 21:14:52;;;;;;;0.30;0.30;;;5.50;91.30;4.30;99468.00;;;;31142591;28;20076;-75
2021/12/07 21:29:53;;;;;;;0.30;0.30;;;5.50;90.80;4.30;99391.00;;;;31143030;28;20133;-76
2021/12/07 21:44:55;;;;;;;0.20;0.20;;;5.40;91.20;4.20;99324.00;;;;31124776;28;20132;-75
2021/12/07 21:59:57;;;;;;;0.20;0.20;;;5.40;91.70;4.20;99286.00;;;;31134448;28;20641;-75
2021/12/07 22:15:00;;;;;;;0.93;0.93;;;5.30;92.10;4.10;99247.00;;;;31137967;28;20107;-74
2021/12/07 22:30:07;;;;;;;0.20;0.20;;;5.30;92.30;4.10;99214.00;;;;31102793;28;20050;-75
2021/12/07 22:45:09;;;;;;;0.20;0.20;;;5.30;92.50;4.10;99237.00;;;;31156114;28;20041;-74
2021/12/07 23:00:36;;;;;;;0.20;0.20;;;5.20;92.90;4.10;99213.00;;;;31142539;28;20144;-74
2021/12/07 23:15:41;;;;;;;0.30;0.30;;;5.30;93.40;4.10;99213.00;;;;31139674;28;20056;-74
2021/12/07 23:30:51;;;;;;;0.20;0.20;;;5.30;93.50;4.00;99204.00;;;;31106351;28;20942;-73
2021/12/07 23:45:52;;;;;;;0.20;0.20;;;5.20;93.70;4.00;99177.00;;;;31144222;28;20161;-74
